createdAt,value
2023-03-05T00:01:11.782Z,45.81
2023-03-05T00:03:38.686Z,44.86
2023-03-05T00:06:06.018Z,45.54
2023-03-05T00:08:33.739Z,44.56
2023-03-05T00:11:03.355Z,45.41
2023-03-05T00:13:30.776Z,45.46
2023-03-05T00:15:57.562Z,45.28
2023-03-05T00:18:24.875Z,45.26
2023-03-05T00:20:51.683Z,45.58
2023-03-05T00:23:18.513Z,46.44
2023-03-05T00:25:46.663Z,45.69
2023-03-05T00:28:14.146Z,45.76
2023-03-05T00:30:41.250Z,45.35
2023-03-05T00:33:08.956Z,45.59
2023-03-05T00:35:42.864Z,45.23
2023-03-05T00:38:12.033Z,45.14
2023-03-05T00:40:41.264Z,44.55
2023-03-05T00:43:08.808Z,44.74
2023-03-05T00:45:35.763Z,44.89
2023-03-05T00:48:03.827Z,45.21
2023-03-05T00:50:31.620Z,46.99
2023-03-05T00:52:59.313Z,46.24
2023-03-05T00:55:26.074Z,45.51
2023-03-05T00:57:52.882Z,46.22
2023-03-05T01:00:19.882Z,46.04
2023-03-05T01:02:46.661Z,45.73
2023-03-05T01:05:14.727Z,45.85
2023-03-05T01:07:41.703Z,45.58
2023-03-05T01:10:09.355Z,45.59
2023-03-05T01:12:37.303Z,44.71
2023-03-05T01:15:05.406Z,45.55
2023-03-05T01:17:32.513Z,44.61
2023-03-05T01:19:59.233Z,45.03
2023-03-05T01:22:26.220Z,44.70
2023-03-05T01:24:52.913Z,44.96
2023-03-05T01:27:19.983Z,44.72
2023-03-05T01:29:46.887Z,44.96
2023-03-05T01:32:13.731Z,44.96
2023-03-05T01:34:41.983Z,44.12
2023-03-05T01:37:09.602Z,44.43
2023-03-05T01:39:36.497Z,44.04
2023-03-05T01:42:04.299Z,44.33
2023-03-05T01:44:32.712Z,44.42
2023-03-05T01:46:59.683Z,44.41
2023-03-05T01:49:35.304Z,44.90
2023-03-05T01:52:11.834Z,43.89
2023-03-05T01:55:03.850Z,44.96
2023-03-05T01:57:38.456Z,45.09
2023-03-05T02:00:21.798Z,44.66
2023-03-05T02:02:51.423Z,44.32
2023-03-05T02:05:30.800Z,44.58
2023-03-05T02:08:00.816Z,43.67
2023-03-05T02:10:30.595Z,43.85
2023-03-05T02:13:01.006Z,43.19
2023-03-05T02:15:29.558Z,43.26
2023-03-05T02:17:56.553Z,42.93
2023-03-05T02:20:28.628Z,42.52
2023-03-05T02:22:56.209Z,42.83
2023-03-05T02:25:28.926Z,42.67
2023-03-05T02:28:01.949Z,42.33
2023-03-05T02:30:29.492Z,42.47
2023-03-05T02:32:56.248Z,42.30
2023-03-05T02:35:23.388Z,42.22
2023-03-05T02:37:50.185Z,42.62
2023-03-05T02:40:17.567Z,43.02
2023-03-05T02:42:44.722Z,43.52
2023-03-05T02:45:13.885Z,43.88
2023-03-05T02:47:41.158Z,42.58
2023-03-05T02:50:11.341Z,42.52
2023-03-05T02:52:39.381Z,43.37
2023-03-05T02:55:11.767Z,43.50
2023-03-05T02:57:39.931Z,43.21
2023-03-05T03:00:07.630Z,44.73
2023-03-05T03:02:35.010Z,45.02
2023-03-05T03:05:02.317Z,44.54
2023-03-05T03:07:29.278Z,45.24
2023-03-05T03:09:55.993Z,45.29
2023-03-05T03:12:23.239Z,45.81
2023-03-05T03:14:49.934Z,45.69
2023-03-05T03:17:18.310Z,45.54
2023-03-05T03:19:46.180Z,45.79
2023-03-05T03:22:16.072Z,45.41
2023-03-05T03:24:43.759Z,45.11
2023-03-05T03:27:10.681Z,46.37
2023-03-05T03:29:37.664Z,45.55
2023-03-05T03:32:04.792Z,46.03
2023-03-05T03:34:31.797Z,46.46
2023-03-05T03:36:58.624Z,45.66
2023-03-05T03:39:25.575Z,47.08
2023-03-05T03:41:53.605Z,47.80
2023-03-05T03:44:21.251Z,47.42
2023-03-05T03:46:50.001Z,47.55
2023-03-05T03:49:20.133Z,46.38
2023-03-05T03:51:47.934Z,46.94
2023-03-05T03:54:16.248Z,46.07
2023-03-05T03:56:43.696Z,45.59
2023-03-05T03:59:11.137Z,46.21
2023-03-05T04:01:38.197Z,46.61
2023-03-05T04:04:05.579Z,46.66
2023-03-05T04:06:33.617Z,45.90
2023-03-05T04:09:00.370Z,46.89
2023-03-05T04:11:27.070Z,46.93
2023-03-05T04:13:53.791Z,46.31
2023-03-05T04:16:23.728Z,47.18
2023-03-05T04:18:50.576Z,46.30
2023-03-05T04:21:17.460Z,47.62
2023-03-05T04:23:44.225Z,46.61
2023-03-05T04:26:11.338Z,46.30
2023-03-05T04:28:38.250Z,46.06
2023-03-05T04:31:05.450Z,45.87
2023-03-05T04:33:32.382Z,46.28
2023-03-05T04:35:59.306Z,47.21
2023-03-05T04:38:26.240Z,46.99
2023-03-05T04:40:53.024Z,46.80
2023-03-05T04:43:19.738Z,47.99
2023-03-05T04:45:46.696Z,47.39
2023-03-05T04:48:13.709Z,47.80
2023-03-05T04:50:40.903Z,47.80
2023-03-05T04:53:07.625Z,46.96
2023-03-05T04:55:34.428Z,46.84
2023-03-05T04:58:03.216Z,46.52
2023-03-05T05:00:30.103Z,46.35
2023-03-05T05:02:57.334Z,46.12
2023-03-05T05:05:26.091Z,46.44
2023-03-05T05:07:58.048Z,46.12
2023-03-05T05:10:26.237Z,46.39
2023-03-05T05:12:52.941Z,46.29
2023-03-05T05:15:20.372Z,46.23
2023-03-05T05:17:47.541Z,45.76
2023-03-05T05:20:16.485Z,45.57
2023-03-05T05:22:43.744Z,45.20
2023-03-05T05:25:10.729Z,47.08
2023-03-05T05:27:40.313Z,46.24
2023-03-05T05:30:07.861Z,46.42
2023-03-05T05:32:35.350Z,46.66
2023-03-05T05:35:02.518Z,46.93
2023-03-05T05:37:30.158Z,46.80
2023-03-05T05:39:56.828Z,46.81
2023-03-05T05:42:25.009Z,45.07
2023-03-05T05:44:51.894Z,46.08
2023-03-05T05:47:19.050Z,45.79
2023-03-05T05:49:46.787Z,45.24
2023-03-05T05:52:14.279Z,44.41
2023-03-05T05:54:40.957Z,44.22
2023-03-05T05:57:07.893Z,44.86
2023-03-05T05:59:35.057Z,44.95
2023-03-05T06:02:01.849Z,44.75
2023-03-05T06:04:28.596Z,45.11
2023-03-05T06:06:55.735Z,45.35
2023-03-05T06:09:22.591Z,45.50
2023-03-05T06:11:50.422Z,44.33
2023-03-05T06:14:17.229Z,44.18
2023-03-05T06:16:44.218Z,44.27
2023-03-05T06:19:15.139Z,43.09
2023-03-05T06:21:43.548Z,43.63
2023-03-05T06:24:10.849Z,43.42
2023-03-05T06:26:38.536Z,42.51
2023-03-05T06:29:05.258Z,42.64
2023-03-05T06:31:32.247Z,41.83
2023-03-05T06:34:03.777Z,41.91
2023-03-05T06:36:31.003Z,41.30
2023-03-05T06:38:58.488Z,41.38
2023-03-05T06:41:31.551Z,41.42
2023-03-05T06:44:02.328Z,41.75
2023-03-05T06:46:32.506Z,41.10
2023-03-05T06:49:01.813Z,41.26
2023-03-05T06:51:34.907Z,41.25
2023-03-05T06:54:06.855Z,41.06
2023-03-05T06:56:36.549Z,40.77
2023-03-05T06:59:03.394Z,40.67
2023-03-05T07:01:30.252Z,40.65
2023-03-05T07:04:00.413Z,40.10
2023-03-05T07:06:27.810Z,39.93
2023-03-05T07:08:59.040Z,40.01
2023-03-05T07:11:26.166Z,40.24
2023-03-05T07:13:53.220Z,39.21
2023-03-05T07:16:26.190Z,39.60
2023-03-05T07:18:54.183Z,39.26
2023-03-05T07:21:23.532Z,39.15
2023-03-05T07:23:50.666Z,38.46
2023-03-05T07:26:17.626Z,38.38
2023-03-05T07:28:44.549Z,38.17
2023-03-05T07:31:26.991Z,37.93
2023-03-05T07:33:54.190Z,38.01
2023-03-05T07:36:23.328Z,38.38
2023-03-05T07:38:51.187Z,39.15
2023-03-05T07:41:20.019Z,39.74
2023-03-05T07:43:49.256Z,39.23
2023-03-05T07:46:21.394Z,39.15
2023-03-05T07:48:49.366Z,39.05
2023-03-05T07:51:19.985Z,39.41
2023-03-05T07:53:51.158Z,39.07
2023-03-05T07:56:23.560Z,40.07
2023-03-05T07:58:50.648Z,40.30
2023-03-05T08:01:17.680Z,39.99
2023-03-05T08:03:44.863Z,40.32
2023-03-05T08:06:12.758Z,39.50
2023-03-05T08:08:39.828Z,39.55
2023-03-05T08:11:09.824Z,40.21
2023-03-05T08:13:37.222Z,39.80
2023-03-05T08:16:09.735Z,39.61
2023-03-05T08:18:36.419Z,39.95
2023-03-05T08:21:03.881Z,40.85
2023-03-05T08:23:31.197Z,41.12
2023-03-05T08:25:58.045Z,41.75
2023-03-05T08:28:24.856Z,41.31
2023-03-05T08:30:51.865Z,40.29
2023-03-05T08:33:19.048Z,40.43
2023-03-05T08:35:45.971Z,41.46
2023-03-05T08:38:12.778Z,40.92
2023-03-05T08:40:39.682Z,40.39
2023-03-05T08:43:07.232Z,42.13
2023-03-05T08:45:34.161Z,42.31
2023-03-05T08:48:00.944Z,42.21
2023-03-05T08:50:27.726Z,41.39
2023-03-05T08:52:56.927Z,41.51
2023-03-05T08:55:23.807Z,40.65
2023-03-05T08:57:50.718Z,41.47
2023-03-05T09:00:17.975Z,41.77
2023-03-05T09:02:44.936Z,40.89
2023-03-05T09:05:11.766Z,40.33
2023-03-05T09:07:38.632Z,40.45
2023-03-05T09:10:06.352Z,40.15
2023-03-05T09:12:33.221Z,39.76
2023-03-05T09:15:00.043Z,41.96
2023-03-05T09:17:26.803Z,38.24
2023-03-05T09:19:53.697Z,38.75
2023-03-05T09:22:20.436Z,38.58
2023-03-05T09:24:48.179Z,38.45
2023-03-05T09:27:14.982Z,37.30
2023-03-05T09:29:43.161Z,36.89
2023-03-05T09:32:10.295Z,38.22
2023-03-05T09:34:37.246Z,37.05
2023-03-05T09:37:04.441Z,37.14
2023-03-05T09:39:31.398Z,36.54
2023-03-05T09:42:28.279Z,36.13
2023-03-05T09:45:20.004Z,37.07
2023-03-05T09:48:01.835Z,36.51
2023-03-05T09:50:42.048Z,36.28
2023-03-05T09:53:20.807Z,36.63
2023-03-05T09:55:52.495Z,35.63
2023-03-05T09:58:22.270Z,35.14
2023-03-05T10:00:54.797Z,35.23
2023-03-05T10:03:34.828Z,34.82
2023-03-05T10:06:24.685Z,33.57
2023-03-05T10:09:09.837Z,32.64
2023-03-05T10:11:50.356Z,31.70
2023-03-05T10:14:29.723Z,32.24
2023-03-05T10:16:59.163Z,33.02
2023-03-05T10:19:28.517Z,32.36
2023-03-05T10:22:21.568Z,31.84
2023-03-05T10:25:19.642Z,31.78
2023-03-05T10:27:54.083Z,32.10
2023-03-05T10:30:46.436Z,32.45
2023-03-05T10:33:23.493Z,31.37
2023-03-05T10:35:55.955Z,32.01
2023-03-05T10:38:28.558Z,30.66
2023-03-05T10:40:55.911Z,31.10
2023-03-05T10:43:41.643Z,30.93
2023-03-05T10:46:32.984Z,30.79
2023-03-05T10:49:17.277Z,30.96
2023-03-05T10:52:01.700Z,32.03
2023-03-05T10:54:31.498Z,31.05
2023-03-05T10:57:21.310Z,30.60
2023-03-05T10:59:55.966Z,30.80
2023-03-05T11:02:23.915Z,29.54
2023-03-05T11:04:52.170Z,30.00
2023-03-05T11:07:18.947Z,30.83
2023-03-05T11:10:02.620Z,30.66
2023-03-05T11:12:38.830Z,31.66
2023-03-05T11:15:11.618Z,31.24
2023-03-05T11:17:43.386Z,31.64
2023-03-05T11:20:30.712Z,31.01
2023-03-05T11:23:15.857Z,30.44
2023-03-05T11:25:59.467Z,31.17
2023-03-05T11:28:38.238Z,31.00
2023-03-05T11:31:21.136Z,31.32
2023-03-05T11:33:55.686Z,31.88
2023-03-05T11:36:26.926Z,30.16
2023-03-05T11:38:59.677Z,30.38
2023-03-05T11:41:54.098Z,29.88
2023-03-05T11:44:34.277Z,30.04
2023-03-05T11:47:28.574Z,29.70
2023-03-05T11:50:19.145Z,29.96
2023-03-05T11:52:48.389Z,28.76
2023-03-05T11:55:18.987Z,31.25
2023-03-05T11:57:51.741Z,29.00
2023-03-05T12:00:24.831Z,29.71
2023-03-05T12:02:54.598Z,28.86
2023-03-05T12:05:21.520Z,29.71
2023-03-05T12:07:55.278Z,29.02
2023-03-05T12:10:25.665Z,29.28
2023-03-05T12:13:11.111Z,29.01
2023-03-05T12:16:00.305Z,28.75
2023-03-05T12:18:51.214Z,28.95
2023-03-05T12:21:33.226Z,29.17
2023-03-05T12:24:02.365Z,27.96
2023-03-05T12:26:53.631Z,28.08
2023-03-05T12:29:43.659Z,27.97
2023-03-05T12:32:22.850Z,29.46
2023-03-05T12:35:24.871Z,28.15
2023-03-05T12:37:51.858Z,27.46
2023-03-05T12:40:25.780Z,28.28
2023-03-05T12:43:33.947Z,28.42
2023-03-05T12:46:31.643Z,28.12
2023-03-05T12:48:59.503Z,27.79
2023-03-05T12:51:33.971Z,27.50
2023-03-05T12:54:36.624Z,27.33
2023-03-05T12:57:17.370Z,26.90
2023-03-05T12:59:50.404Z,27.06
2023-03-05T13:02:58.895Z,26.17
2023-03-05T13:05:29.979Z,26.85
2023-03-05T13:08:35.391Z,27.10
2023-03-05T13:11:08.473Z,27.32
2023-03-05T13:13:41.578Z,27.31
2023-03-05T13:16:25.187Z,27.82
2023-03-05T13:18:54.956Z,28.19
2023-03-05T13:21:26.890Z,28.19
2023-03-05T13:23:59.193Z,28.18
2023-03-05T13:26:35.989Z,28.74
2023-03-05T13:29:17.636Z,29.50
2023-03-05T13:31:48.429Z,31.11
2023-03-05T13:34:37.420Z,29.13
2023-03-05T13:37:21.293Z,29.02
2023-03-05T13:39:52.740Z,29.17
2023-03-05T13:42:24.692Z,27.96
2023-03-05T13:45:00.073Z,28.85
2023-03-05T13:47:32.366Z,29.32
2023-03-05T13:50:02.112Z,28.59
2023-03-05T13:52:32.111Z,29.41
2023-03-05T13:55:00.443Z,28.76
2023-03-05T13:57:41.256Z,28.71
2023-03-05T14:00:26.186Z,28.32
2023-03-05T14:02:55.214Z,28.25
2023-03-05T14:05:22.354Z,28.25
2023-03-05T14:07:51.258Z,28.79
2023-03-05T14:10:47.869Z,28.62
2023-03-05T14:13:20.975Z,27.92
2023-03-05T14:16:25.819Z,28.51
2023-03-05T14:18:55.308Z,27.82
2023-03-05T14:21:22.339Z,28.07
2023-03-05T14:23:53.070Z,27.86
2023-03-05T14:26:31.578Z,28.19
2023-03-05T14:29:04.114Z,28.53
2023-03-05T14:31:36.624Z,28.27
2023-03-05T14:34:07.513Z,27.93
2023-03-05T14:36:36.463Z,29.24
2023-03-05T14:39:03.414Z,30.82
2023-03-05T14:41:33.311Z,29.42
2023-03-05T14:44:01.375Z,29.75
2023-03-05T14:46:29.079Z,29.87
2023-03-05T14:48:56.327Z,29.16
2023-03-05T14:51:25.418Z,29.23
2023-03-05T14:53:52.161Z,28.84
2023-03-05T14:56:24.548Z,29.24
2023-03-05T14:58:51.964Z,29.72
2023-03-05T15:01:21.202Z,29.50
2023-03-05T15:03:48.580Z,28.69
2023-03-05T15:06:26.207Z,28.57
2023-03-05T15:08:53.626Z,28.56
2023-03-05T15:11:22.612Z,28.80
2023-03-05T15:13:50.172Z,28.79
2023-03-05T15:16:19.317Z,28.98
2023-03-05T15:18:46.439Z,28.88
2023-03-05T15:21:13.420Z,28.74
2023-03-05T15:23:44.654Z,28.95
2023-03-05T15:26:14.767Z,30.47
2023-03-05T15:28:42.955Z,29.08
2023-03-05T15:31:10.420Z,29.43
2023-03-05T15:33:37.640Z,28.60
2023-03-05T15:36:04.791Z,28.70
2023-03-05T15:38:32.769Z,29.23
2023-03-05T15:41:01.713Z,29.33
2023-03-05T15:43:30.539Z,29.90
2023-03-05T15:45:57.428Z,29.25
2023-03-05T15:48:24.287Z,28.50
2023-03-05T15:50:51.982Z,29.05
2023-03-05T15:53:20.180Z,28.40
2023-03-05T15:55:46.965Z,28.38
2023-03-05T15:58:16.916Z,28.21
2023-03-05T16:00:44.625Z,28.30
2023-03-05T16:03:11.642Z,28.13
2023-03-05T16:05:38.874Z,28.86
2023-03-05T16:08:06.651Z,29.68
2023-03-05T16:10:33.775Z,29.86
2023-03-05T16:13:10.114Z,30.01
2023-03-05T16:15:39.360Z,30.11
2023-03-05T16:18:10.012Z,30.00
2023-03-05T16:20:36.842Z,29.51
2023-03-05T16:23:04.870Z,29.52
2023-03-05T16:25:31.801Z,29.86
2023-03-05T16:27:58.523Z,29.92
2023-03-05T16:30:25.302Z,30.12
2023-03-05T16:32:53.727Z,29.53
2023-03-05T16:35:21.229Z,30.13
2023-03-05T16:37:48.041Z,29.82
2023-03-05T16:40:14.954Z,30.37
2023-03-05T16:42:42.110Z,30.18
2023-03-05T16:45:10.385Z,30.42
2023-03-05T16:47:38.415Z,30.79
2023-03-05T16:50:06.501Z,31.14
2023-03-05T16:52:33.243Z,31.56
2023-03-05T16:55:00.341Z,31.55
2023-03-05T16:57:28.878Z,33.64
2023-03-05T16:59:56.400Z,33.70
2023-03-05T17:02:23.609Z,33.04
2023-03-05T17:04:50.719Z,33.56
2023-03-05T17:07:17.985Z,34.68
2023-03-05T17:09:44.748Z,34.40
2023-03-05T17:12:11.564Z,34.69
2023-03-05T17:14:38.661Z,34.60
2023-03-05T17:17:05.413Z,34.77
2023-03-05T17:19:32.078Z,34.04
2023-03-05T17:21:58.968Z,34.23
2023-03-05T17:24:26.118Z,35.50
2023-03-05T17:26:52.804Z,34.71
2023-03-05T17:29:20.038Z,34.50
2023-03-05T17:31:50.558Z,35.14
2023-03-05T17:34:18.386Z,34.18
2023-03-05T17:36:50.465Z,34.90
2023-03-05T17:39:19.121Z,34.96
2023-03-05T17:41:49.475Z,34.45
2023-03-05T17:44:16.277Z,34.87
2023-03-05T17:46:43.162Z,34.61
2023-03-05T17:49:11.880Z,34.83
2023-03-05T17:51:38.586Z,34.73
2023-03-05T17:54:05.895Z,35.87
2023-03-05T17:56:32.939Z,36.37
2023-03-05T17:59:00.385Z,36.70
2023-03-05T18:01:30.788Z,35.60
2023-03-05T18:03:58.297Z,36.14
2023-03-05T18:06:26.506Z,34.88
2023-03-05T18:08:53.303Z,34.97
2023-03-05T18:11:20.259Z,35.38
2023-03-05T18:13:46.924Z,35.28
2023-03-05T18:16:17.780Z,35.29
2023-03-05T18:18:45.202Z,35.94
2023-03-05T18:21:12.160Z,35.26
2023-03-05T18:23:38.932Z,36.26
2023-03-05T18:26:05.725Z,35.70
2023-03-05T18:28:32.507Z,36.40
2023-03-05T18:31:01.589Z,35.64
2023-03-05T18:33:28.286Z,35.80
2023-03-05T18:35:55.233Z,36.07
2023-03-05T18:38:24.427Z,35.98
2023-03-05T18:40:52.734Z,35.41
2023-03-05T18:43:21.813Z,36.09
2023-03-05T18:45:50.627Z,35.98
2023-03-05T18:48:17.663Z,36.57
2023-03-05T18:50:44.663Z,36.75
2023-03-05T18:53:13.762Z,37.04
2023-03-05T18:55:44.905Z,37.21
2023-03-05T18:58:15.769Z,38.56
2023-03-05T19:00:44.812Z,36.75
2023-03-05T19:03:12.319Z,37.54
2023-03-05T19:05:39.983Z,37.71
2023-03-05T19:08:07.930Z,36.50
2023-03-05T19:10:35.432Z,36.87
2023-03-05T19:13:26.665Z,37.52
2023-03-05T19:15:57.181Z,36.95
2023-03-05T19:18:26.418Z,37.31
2023-03-05T19:20:56.124Z,37.73
2023-03-05T19:23:22.872Z,37.42
2023-03-05T19:25:49.639Z,37.21
2023-03-05T19:28:16.438Z,37.19
2023-03-05T19:30:43.148Z,36.84
2023-03-05T19:33:10.205Z,36.97
2023-03-05T19:35:38.224Z,37.06
2023-03-05T19:38:04.972Z,36.90
2023-03-05T19:40:31.809Z,36.46
2023-03-05T19:42:58.923Z,36.82
2023-03-05T19:45:25.668Z,36.16
2023-03-05T19:47:52.360Z,36.22
2023-03-05T19:50:19.351Z,37.53
2023-03-05T19:52:46.182Z,36.42
2023-03-05T19:55:12.941Z,36.63
2023-03-05T19:57:39.998Z,36.22
2023-03-05T20:00:07.430Z,39.08
2023-03-05T20:02:34.101Z,38.95
2023-03-05T20:05:00.900Z,37.62
2023-03-05T20:07:28.018Z,36.58
2023-03-05T20:09:55.604Z,36.63
2023-03-05T20:12:23.418Z,36.05
2023-03-05T20:14:50.494Z,36.00
2023-03-05T20:17:17.378Z,35.94
2023-03-05T20:19:44.172Z,36.04
2023-03-05T20:22:11.202Z,35.40
2023-03-05T20:24:38.235Z,36.00
2023-03-05T20:27:05.035Z,35.80
2023-03-05T20:29:31.824Z,35.44
2023-03-05T20:31:58.754Z,36.07
2023-03-05T20:34:27.088Z,35.48
2023-03-05T20:36:54.031Z,36.61
2023-03-05T20:39:20.787Z,36.84
2023-03-05T20:41:48.516Z,36.52
2023-03-05T20:44:16.550Z,36.89
2023-03-05T20:47:32.825Z,37.73
2023-03-05T20:50:05.961Z,36.84
2023-03-05T20:52:32.860Z,36.52
2023-03-05T20:55:02.459Z,36.01
2023-03-05T20:57:30.484Z,36.29
2023-03-05T20:59:57.212Z,36.58
2023-03-05T21:02:23.966Z,36.34
2023-03-05T21:04:50.790Z,36.21
2023-03-05T21:07:17.569Z,35.95
2023-03-05T21:09:44.524Z,35.89
2023-03-05T21:12:11.523Z,36.00
2023-03-05T21:14:39.783Z,37.49
2023-03-05T21:17:10.053Z,38.22
2023-03-05T21:19:38.503Z,37.58
2023-03-05T21:22:05.317Z,36.99
2023-03-05T21:25:36.266Z,37.40
2023-03-05T21:28:02.992Z,37.42
2023-03-05T21:30:35.996Z,36.69
2023-03-05T21:33:06.231Z,35.96
2023-03-05T21:35:33.736Z,37.41
2023-03-05T21:38:02.540Z,36.19
2023-03-05T21:40:30.217Z,35.72
2023-03-05T21:42:57.121Z,35.25
2023-03-05T21:45:26.799Z,36.08
2023-03-05T21:47:56.253Z,35.48
2023-03-05T21:50:24.618Z,35.56
2023-03-05T21:52:52.254Z,35.92
2023-03-05T21:55:32.294Z,36.45
2023-03-05T21:58:13.779Z,37.11
2023-03-05T22:00:40.647Z,36.67
2023-03-05T22:03:07.380Z,36.76
2023-03-05T22:05:34.181Z,36.39
2023-03-05T22:08:01.082Z,36.39
2023-03-05T22:10:27.893Z,36.40
2023-03-05T22:13:10.205Z,36.11
2023-03-05T22:15:47.878Z,36.32
2023-03-05T22:18:16.792Z,36.55
2023-03-05T22:20:43.788Z,36.80
2023-03-05T22:23:11.475Z,37.99
2023-03-05T22:25:38.432Z,36.92
2023-03-05T22:28:05.882Z,36.51
2023-03-05T22:30:33.154Z,36.47
2023-03-05T22:33:01.890Z,36.63
2023-03-05T22:35:29.413Z,36.39
2023-03-05T22:37:56.238Z,36.12
2023-03-05T22:40:23.206Z,36.46
2023-03-05T22:42:49.991Z,36.11
2023-03-05T22:45:18.058Z,36.00
2023-03-05T22:47:51.469Z,36.93
2023-03-05T22:50:18.709Z,35.82
2023-03-05T22:52:45.771Z,36.38
2023-03-05T22:55:14.678Z,36.71
2023-03-05T22:57:41.894Z,36.53
2023-03-05T23:00:16.127Z,36.70
2023-03-05T23:02:43.977Z,36.51
2023-03-05T23:05:11.657Z,36.54
2023-03-05T23:07:41.449Z,36.59
2023-03-05T23:10:23.867Z,36.94
2023-03-05T23:12:53.660Z,36.86
2023-03-05T23:15:22.867Z,37.01
2023-03-05T23:17:49.724Z,36.87
2023-03-05T23:20:20.307Z,36.77
2023-03-05T23:22:48.994Z,37.12
2023-03-05T23:25:16.505Z,36.40
2023-03-05T23:27:44.943Z,37.00
2023-03-05T23:30:21.959Z,36.27
2023-03-05T23:33:23.925Z,36.48
2023-03-05T23:35:53.368Z,36.95
2023-03-05T23:38:20.505Z,37.81
2023-03-05T23:40:56.328Z,36.90
2023-03-05T23:43:25.088Z,38.11
2023-03-05T23:45:55.025Z,37.06
2023-03-05T23:48:24.006Z,37.10
2023-03-05T23:50:50.798Z,37.34
2023-03-05T23:53:24.477Z,36.79
2023-03-05T23:55:51.728Z,36.66
2023-03-05T23:58:20.509Z,37.07
